createdAt,value
2023-01-10T00:01:40.080Z,12.98
2023-01-10T00:09:01.926Z,11.05
2023-01-10T00:11:48.086Z,12.02
2023-01-10T00:14:15.630Z,12.45
2023-01-10T00:19:10.854Z,14.73
2023-01-10T00:21:39.868Z,11.90
2023-01-10T00:24:18.999Z,15.35
2023-01-10T00:26:57.059Z,13.10
2023-01-10T00:29:29.074Z,13.52
2023-01-10T00:31:57.371Z,10.20
2023-01-10T00:34:25.013Z,15.88
2023-01-10T00:36:52.997Z,11.32
2023-01-10T00:39:20.977Z,11.73
2023-01-10T00:42:07.260Z,12.57
2023-01-10T00:44:34.792Z,16.37
2023-01-10T00:51:58.377Z,11.98
2023-01-10T00:54:26.373Z,7.18
2023-01-10T00:56:53.859Z,13.50
2023-01-10T00:59:21.775Z,9.65
2023-01-10T01:01:50.215Z,13.52
2023-01-10T01:04:17.950Z,12.98
2023-01-10T01:06:47.631Z,13.70
2023-01-10T01:09:15.844Z,13.05
2023-01-10T01:11:43.297Z,13.25
2023-01-10T01:14:11.230Z,15.48
2023-01-10T01:16:38.677Z,17.05
2023-01-10T01:19:06.462Z,10.70
2023-01-10T01:21:34.212Z,12.23
2023-01-10T01:24:01.680Z,14.68
2023-01-10T01:33:51.759Z,12.75
2023-01-10T01:36:20.154Z,14.75
2023-01-10T01:38:47.793Z,20.83
2023-01-10T01:41:33.682Z,15.40
2023-01-10T01:44:07.539Z,15.63
2023-01-10T01:46:38.972Z,10.95
2023-01-10T01:49:13.764Z,13.15
2023-01-10T01:51:41.566Z,15.82
2023-01-10T01:54:12.207Z,15.10
2023-01-10T01:56:58.567Z,15.35
2023-01-10T01:59:30.671Z,16.67
2023-01-10T02:02:04.220Z,11.52
2023-01-10T02:04:38.892Z,19.42
2023-01-10T02:07:06.346Z,14.68
2023-01-10T02:12:05.618Z,14.38
2023-01-10T02:14:34.602Z,10.10
2023-01-10T02:17:02.071Z,14.15
2023-01-10T02:22:30.595Z,18.13
2023-01-10T02:25:10.068Z,12.80
2023-01-10T02:28:08.933Z,14.38
2023-01-10T02:31:14.100Z,20.35
2023-01-10T02:33:59.714Z,16.52
2023-01-10T02:36:47.894Z,19.30
2023-01-10T02:39:53.609Z,17.25
2023-01-10T02:42:34.661Z,13.93
2023-01-10T02:45:13.453Z,9.13
2023-01-10T02:47:42.277Z,16.55
2023-01-10T02:50:39.824Z,17.45
2023-01-10T02:53:22.420Z,18.70
2023-01-10T02:56:02.893Z,15.60
2023-01-10T02:59:03.547Z,13.95
2023-01-10T03:02:02.185Z,19.20
2023-01-10T03:04:40.250Z,21.58
2023-01-10T03:07:18.472Z,29.70
2023-01-10T03:10:06.799Z,23.02
2023-01-10T03:13:04.992Z,24.13
2023-01-10T03:15:37.235Z,16.38
2023-01-10T03:18:11.067Z,13.27
2023-01-10T03:20:42.629Z,14.93
2023-01-10T03:23:11.149Z,16.52
2023-01-10T03:25:40.281Z,16.48
2023-01-10T03:28:15.661Z,21.35
2023-01-10T03:30:50.369Z,27.20
2023-01-10T03:33:22.479Z,11.75
2023-01-10T03:36:16.878Z,26.52
2023-01-10T03:38:53.701Z,23.98
2023-01-10T03:41:38.772Z,15.70
2023-01-10T03:44:44.842Z,18.55
2023-01-10T03:47:36.647Z,18.50
2023-01-10T03:50:13.757Z,20.85
2023-01-10T03:52:42.939Z,30.15
2023-01-10T03:55:13.368Z,20.95
2023-01-10T03:57:45.702Z,17.55
2023-01-10T04:00:14.324Z,23.88
2023-01-10T04:02:42.257Z,15.98
2023-01-10T04:05:10.083Z,19.85
2023-01-10T04:07:37.508Z,20.95
2023-01-10T04:12:33.581Z,16.95
2023-01-10T04:15:01.644Z,17.02
2023-01-10T04:17:29.050Z,16.67
2023-01-10T04:24:54.582Z,17.88
2023-01-10T04:27:22.426Z,22.88
2023-01-10T04:29:49.808Z,18.02
2023-01-10T04:37:11.933Z,19.25
2023-01-10T04:42:06.648Z,18.17
2023-01-10T04:49:28.647Z,21.23
2023-01-10T04:51:56.072Z,23.08
2023-01-10T04:54:23.659Z,21.85
2023-01-10T04:56:51.337Z,21.15
2023-01-10T04:59:19.025Z,24.75
2023-01-10T05:01:46.642Z,22.48
2023-01-10T05:04:14.361Z,17.45
2023-01-10T05:06:41.947Z,20.88
2023-01-10T05:09:09.809Z,15.77
2023-01-10T05:11:37.451Z,25.77
2023-01-10T05:14:04.859Z,15.25
2023-01-10T05:21:26.908Z,22.10
2023-01-10T05:23:54.300Z,15.93
2023-01-10T05:28:50.899Z,14.40
2023-01-10T05:31:20.153Z,16.70
2023-01-10T05:33:49.991Z,17.52
2023-01-10T05:36:19.058Z,14.43
2023-01-10T05:38:46.565Z,14.15
2023-01-10T05:41:13.999Z,16.80
2023-01-10T05:43:41.547Z,28.00
2023-01-10T05:46:09.283Z,17.88
2023-01-10T05:48:37.145Z,16.92
2023-01-10T05:51:04.939Z,25.00
2023-01-10T05:53:32.336Z,16.40
2023-01-10T05:58:29.828Z,11.73
2023-01-10T06:00:58.171Z,15.88
2023-01-10T06:03:26.778Z,17.85
2023-01-10T06:05:55.466Z,12.20
2023-01-10T06:08:23.906Z,12.40
2023-01-10T06:10:51.464Z,12.50
2023-01-10T06:15:46.660Z,15.43
2023-01-10T06:18:14.232Z,11.45
2023-01-10T06:20:45.072Z,11.40
2023-01-10T06:23:12.973Z,15.13
2023-01-10T06:25:41.786Z,10.18
2023-01-10T06:28:14.291Z,13.38
2023-01-10T06:30:43.602Z,13.82
2023-01-10T06:33:12.225Z,19.13
2023-01-10T06:35:40.104Z,9.73
2023-01-10T06:38:07.870Z,12.27
2023-01-10T06:40:35.416Z,14.90
2023-01-10T06:45:30.271Z,10.80
2023-01-10T06:47:57.795Z,6.30
2023-01-10T06:50:25.318Z,9.48
2023-01-10T06:55:24.683Z,6.72
2023-01-10T06:58:00.661Z,6.78
2023-01-10T07:00:29.605Z,5.40
2023-01-10T07:03:01.601Z,7.13
2023-01-10T07:05:29.823Z,5.00
2023-01-10T07:07:58.742Z,7.00
2023-01-10T07:10:26.283Z,3.60
2023-01-10T07:15:25.042Z,5.22
2023-01-10T07:17:52.466Z,4.40
2023-01-10T07:22:58.462Z,5.70
2023-01-10T07:25:28.385Z,2.45
2023-01-10T07:27:55.802Z,7.20
2023-01-10T07:30:25.326Z,7.97
2023-01-10T07:32:55.075Z,3.35
2023-01-10T07:35:23.413Z,1.42
2023-01-10T07:37:50.920Z,4.05
2023-01-10T07:40:18.614Z,2.08
2023-01-10T07:42:45.973Z,3.30
2023-01-10T07:47:40.793Z,1.33
2023-01-10T07:52:36.095Z,4.20
2023-01-10T07:55:03.744Z,4.05
2023-01-10T07:57:31.183Z,2.67
2023-01-10T08:02:26.285Z,1.50
2023-01-10T08:04:53.803Z,3.63
2023-01-10T08:09:48.795Z,3.53
2023-01-10T08:12:16.205Z,3.75
2023-01-10T08:19:38.302Z,2.47
2023-01-10T08:22:05.689Z,3.08
2023-01-10T08:27:00.848Z,1.98
2023-01-10T08:29:29.405Z,3.05
2023-01-10T08:31:57.484Z,3.47
2023-01-10T08:34:25.083Z,3.08
2023-01-10T08:36:53.834Z,3.42
2023-01-10T08:39:22.540Z,6.28
2023-01-10T08:41:49.997Z,4.03
2023-01-10T08:44:17.955Z,7.75
2023-01-10T08:46:46.019Z,5.32
2023-01-10T08:49:14.192Z,4.80
2023-01-10T08:51:41.848Z,6.88
2023-01-10T08:54:09.578Z,6.45
2023-01-10T08:56:37.610Z,8.18
2023-01-10T08:59:05.283Z,8.05
2023-01-10T09:01:32.967Z,6.78
2023-01-10T09:04:00.585Z,10.80
2023-01-10T09:06:28.229Z,9.73
2023-01-10T09:08:55.759Z,5.88
2023-01-10T09:13:53.410Z,12.65
2023-01-10T09:18:48.481Z,9.70
2023-01-10T09:21:16.190Z,11.77
2023-01-10T09:23:44.448Z,8.80
2023-01-10T09:26:11.966Z,14.07
2023-01-10T09:28:39.521Z,19.00
2023-01-10T09:31:08.944Z,10.05
2023-01-10T09:33:46.211Z,11.88
2023-01-10T09:36:15.857Z,14.52
2023-01-10T09:38:44.592Z,7.80
2023-01-10T09:41:28.484Z,9.85
2023-01-10T09:44:27.252Z,17.13
2023-01-10T09:47:21.981Z,16.05
2023-01-10T09:50:05.073Z,12.00
2023-01-10T09:52:40.625Z,10.20
2023-01-10T09:55:34.152Z,16.58
2023-01-10T09:58:07.401Z,21.98
2023-01-10T10:00:56.178Z,13.93
2023-01-10T10:03:54.856Z,15.20
2023-01-10T10:06:24.014Z,17.70
2023-01-10T10:08:53.236Z,22.02
2023-01-10T10:11:26.556Z,19.58
2023-01-10T10:14:09.328Z,26.20
2023-01-10T10:16:36.836Z,17.60
2023-01-10T10:19:43.859Z,20.77
2023-01-10T10:22:22.060Z,22.00
2023-01-10T10:25:20.510Z,21.42
2023-01-10T10:28:22.281Z,18.73
2023-01-10T10:31:01.450Z,25.23
2023-01-10T10:33:31.840Z,24.50
2023-01-10T10:36:31.051Z,19.85
2023-01-10T10:39:01.430Z,21.08
2023-01-10T10:41:37.203Z,23.75
2023-01-10T10:44:27.398Z,25.38
2023-01-10T10:46:58.649Z,35.65
2023-01-10T10:49:37.841Z,27.35
2023-01-10T10:52:17.627Z,27.23
2023-01-10T10:54:47.608Z,22.23
2023-01-10T10:57:15.831Z,25.45
2023-01-10T10:59:47.917Z,29.55
2023-01-10T11:02:28.554Z,30.55
2023-01-10T11:05:03.503Z,29.45
2023-01-10T11:07:37.559Z,21.70
2023-01-10T11:10:32.365Z,29.30
2023-01-10T11:13:01.949Z,19.15
2023-01-10T11:15:47.784Z,28.50
2023-01-10T11:18:21.150Z,24.90
2023-01-10T11:20:58.898Z,24.02
2023-01-10T11:23:50.055Z,26.05
2023-01-10T11:26:36.104Z,21.55
2023-01-10T11:29:19.258Z,28.00
2023-01-10T11:31:50.779Z,26.17
2023-01-10T11:34:35.855Z,20.75
2023-01-10T11:37:20.413Z,25.38
2023-01-10T11:39:47.928Z,21.55
2023-01-10T11:42:33.075Z,32.95
2023-01-10T11:45:18.802Z,26.23
2023-01-10T11:47:50.986Z,28.63
2023-01-10T11:50:22.406Z,23.92
2023-01-10T11:52:51.014Z,24.40
2023-01-10T11:55:30.009Z,26.67
2023-01-10T11:58:05.855Z,21.77
2023-01-10T12:00:37.652Z,22.88
2023-01-10T12:03:29.491Z,29.58
2023-01-10T12:06:07.165Z,26.98
2023-01-10T12:08:37.982Z,23.45
2023-01-10T12:11:19.546Z,22.88
2023-01-10T12:13:48.548Z,21.90
2023-01-10T12:16:22.650Z,33.83
2023-01-10T12:18:53.368Z,27.48
2023-01-10T12:21:45.776Z,25.13
2023-01-10T12:24:24.425Z,29.17
2023-01-10T12:26:54.341Z,35.58
2023-01-10T12:29:26.771Z,25.98
2023-01-10T12:31:57.250Z,31.58
2023-01-10T12:34:31.958Z,23.65
2023-01-10T12:37:08.807Z,28.10
2023-01-10T12:39:45.422Z,21.27
2023-01-10T12:43:00.485Z,20.85
2023-01-10T12:45:33.393Z,28.17
2023-01-10T12:48:10.785Z,27.38
2023-01-10T12:50:46.130Z,27.92
2023-01-10T12:53:30.217Z,27.67
2023-01-10T12:56:00.954Z,27.48
2023-01-10T12:58:43.072Z,27.50
2023-01-10T13:01:36.454Z,17.80
2023-01-10T13:04:09.536Z,28.60
2023-01-10T13:06:40.299Z,23.77
2023-01-10T13:09:14.080Z,25.52
2023-01-10T13:11:50.878Z,22.00
2023-01-10T13:14:22.277Z,34.63
2023-01-10T13:16:58.326Z,25.55
2023-01-10T13:19:28.283Z,19.88
2023-01-10T13:22:24.044Z,22.73
2023-01-10T13:25:00.587Z,23.42
2023-01-10T13:27:32.574Z,26.58
2023-01-10T13:30:00.628Z,26.40
2023-01-10T13:32:35.382Z,30.80
2023-01-10T13:35:19.623Z,24.38
2023-01-10T13:37:55.998Z,23.73
2023-01-10T13:40:28.340Z,25.50
2023-01-10T13:43:34.784Z,31.13
2023-01-10T13:49:03.781Z,19.70
2023-01-10T13:51:32.046Z,21.63
2023-01-10T13:54:04.320Z,28.48
2023-01-10T13:56:37.618Z,22.52
2023-01-10T13:59:33.002Z,18.95
2023-01-10T14:02:21.292Z,23.42
2023-01-10T14:04:54.286Z,21.95
2023-01-10T14:07:41.548Z,19.92
2023-01-10T14:10:31.193Z,20.85
2023-01-10T14:13:10.661Z,18.92
2023-01-10T14:15:46.766Z,20.65
2023-01-10T14:18:21.157Z,15.50
2023-01-10T14:21:07.114Z,18.73
2023-01-10T14:23:44.245Z,21.25
2023-01-10T14:26:35.562Z,17.15
2023-01-10T14:29:13.916Z,16.75
2023-01-10T14:31:47.378Z,11.30
2023-01-10T14:34:25.735Z,15.68
2023-01-10T14:37:03.803Z,21.33
2023-01-10T14:39:31.587Z,11.35
2023-01-10T14:42:04.066Z,16.83
2023-01-10T14:44:43.321Z,13.75
2023-01-10T14:47:33.754Z,10.27
2023-01-10T14:50:02.431Z,10.30
2023-01-10T14:52:30.696Z,10.95
2023-01-10T14:55:25.279Z,9.30
2023-01-10T14:57:57.783Z,12.02
2023-01-10T15:00:41.055Z,19.98
2023-01-10T15:03:18.419Z,16.13
2023-01-10T15:05:50.147Z,14.32
2023-01-10T15:08:25.958Z,15.93
2023-01-10T15:10:59.900Z,20.33
2023-01-10T15:13:28.638Z,18.27
2023-01-10T15:15:57.794Z,8.98
2023-01-10T15:18:44.904Z,11.88
2023-01-10T15:21:16.295Z,16.60
2023-01-10T15:23:46.885Z,17.70
2023-01-10T15:26:17.987Z,15.88
2023-01-10T15:28:49.395Z,16.85
2023-01-10T15:31:17.367Z,15.85
2023-01-10T15:33:56.903Z,12.60
2023-01-10T15:36:27.718Z,13.55
2023-01-10T15:38:55.286Z,17.08
2023-01-10T15:41:24.341Z,13.38
2023-01-10T15:43:54.374Z,9.27
2023-01-10T15:46:28.422Z,6.80
2023-01-10T15:49:08.998Z,11.23
2023-01-10T15:51:41.789Z,12.52
2023-01-10T15:54:24.294Z,8.05
2023-01-10T15:57:00.916Z,10.27
2023-01-10T15:59:37.037Z,8.95
2023-01-10T16:02:29.803Z,7.20
2023-01-10T16:05:05.910Z,8.63
2023-01-10T16:07:36.070Z,6.57
2023-01-10T16:10:17.488Z,6.88
2023-01-10T16:13:03.856Z,8.13
2023-01-10T16:15:35.667Z,11.88
2023-01-10T16:18:03.212Z,11.23
2023-01-10T16:20:50.656Z,10.88
2023-01-10T16:23:21.511Z,9.63
2023-01-10T16:25:55.004Z,11.18
2023-01-10T16:28:24.178Z,8.63
2023-01-10T16:30:51.728Z,10.93
2023-01-10T16:33:24.574Z,12.32
2023-01-10T16:35:53.923Z,9.15
2023-01-10T16:38:22.966Z,11.95
2023-01-10T16:40:55.253Z,12.68
2023-01-10T16:43:23.401Z,12.93
2023-01-10T16:45:53.523Z,9.77
2023-01-10T16:48:21.756Z,12.73
2023-01-10T16:50:49.381Z,10.93
2023-01-10T16:53:19.575Z,15.38
2023-01-10T16:55:50.387Z,15.60
2023-01-10T16:58:19.572Z,13.85
2023-01-10T17:00:52.581Z,14.38
2023-01-10T17:03:25.717Z,12.95
2023-01-10T17:05:53.354Z,13.27
2023-01-10T17:08:23.473Z,18.95
2023-01-10T17:10:54.091Z,12.52
2023-01-10T17:13:26.437Z,12.65
2023-01-10T17:15:53.920Z,12.48
2023-01-10T17:20:48.963Z,17.58
2023-01-10T17:23:16.460Z,17.35
2023-01-10T17:25:44.818Z,16.45
2023-01-10T17:28:12.601Z,14.85
2023-01-10T17:30:40.633Z,14.65
2023-01-10T17:33:11.027Z,20.55
2023-01-10T17:35:42.659Z,17.10
2023-01-10T17:38:17.686Z,16.23
2023-01-10T17:40:47.604Z,19.92
2023-01-10T17:43:17.117Z,16.40
2023-01-10T17:45:47.367Z,18.02
2023-01-10T17:48:17.181Z,15.93
2023-01-10T17:50:56.136Z,13.65
2023-01-10T17:53:23.797Z,17.33
2023-01-10T17:55:51.502Z,13.48
2023-01-10T17:58:19.125Z,14.25
2023-01-10T18:00:48.743Z,20.88
2023-01-10T18:03:17.199Z,16.38
2023-01-10T18:05:56.523Z,18.45
2023-01-10T18:08:25.205Z,17.30
2023-01-10T18:10:59.375Z,21.23
2023-01-10T18:13:36.369Z,12.32
2023-01-10T18:16:04.182Z,16.83
2023-01-10T18:18:31.624Z,21.25
2023-01-10T18:21:02.254Z,14.77
2023-01-10T18:23:32.012Z,14.05
2023-01-10T18:26:05.534Z,18.45
2023-01-10T18:28:43.875Z,14.20
2023-01-10T18:31:18.717Z,19.85
2023-01-10T18:33:47.966Z,18.92
2023-01-10T18:36:21.347Z,19.85
2023-01-10T18:38:49.790Z,18.27
2023-01-10T18:41:19.139Z,20.00
2023-01-10T18:43:47.259Z,19.92
2023-01-10T18:46:20.720Z,12.27
2023-01-10T18:48:52.601Z,14.05
2023-01-10T18:51:22.201Z,20.23
2023-01-10T18:53:49.835Z,14.15
2023-01-10T18:56:17.412Z,17.23
2023-01-10T18:58:45.071Z,14.50
2023-01-10T19:01:15.515Z,15.40
2023-01-10T19:03:43.609Z,15.52
2023-01-10T19:06:14.603Z,18.40
2023-01-10T19:08:43.522Z,15.95
2023-01-10T19:11:15.124Z,17.17
2023-01-10T19:13:47.380Z,14.73
2023-01-10T19:16:18.133Z,11.25
2023-01-10T19:18:51.355Z,15.02
2023-01-10T19:21:20.123Z,15.32
2023-01-10T19:23:49.979Z,14.85
2023-01-10T19:26:18.376Z,17.33
2023-01-10T19:28:46.567Z,13.23
2023-01-10T19:31:22.627Z,10.40
2023-01-10T19:33:50.894Z,14.55
2023-01-10T19:36:20.211Z,12.45
2023-01-10T19:38:48.187Z,18.83
2023-01-10T19:41:16.212Z,16.70
2023-01-10T19:43:43.833Z,16.38
2023-01-10T19:46:12.914Z,14.35
2023-01-10T19:48:40.739Z,13.18
2023-01-10T19:51:10.486Z,15.65
2023-01-10T19:53:42.285Z,12.52
2023-01-10T19:56:10.581Z,19.52
2023-01-10T19:58:38.969Z,13.30
2023-01-10T20:01:15.921Z,20.65
2023-01-10T20:03:46.722Z,19.00
2023-01-10T20:06:17.531Z,15.80
2023-01-10T20:08:46.504Z,13.63
2023-01-10T20:11:15.607Z,14.18
2023-01-10T20:13:45.160Z,14.90
2023-01-10T20:16:14.253Z,13.65
2023-01-10T20:18:42.537Z,15.05
2023-01-10T20:21:12.243Z,17.73
2023-01-10T20:23:40.894Z,11.88
2023-01-10T20:26:21.481Z,20.20
2023-01-10T20:28:50.734Z,16.77
2023-01-10T20:31:23.578Z,14.43
2023-01-10T20:33:51.489Z,14.25
2023-01-10T20:36:22.419Z,7.63
2023-01-10T20:38:50.914Z,13.15
2023-01-10T20:41:21.605Z,12.65
2023-01-10T20:43:49.198Z,10.70
2023-01-10T20:46:27.822Z,14.35
2023-01-10T20:48:56.699Z,11.68
2023-01-10T20:51:31.776Z,8.73
2023-01-10T20:54:00.055Z,11.50
2023-01-10T20:56:30.397Z,5.78
2023-01-10T20:58:58.799Z,10.93
2023-01-10T21:01:34.535Z,6.93
2023-01-10T21:04:05.474Z,5.28
2023-01-10T21:06:34.307Z,6.30
2023-01-10T21:09:02.997Z,9.63
2023-01-10T21:11:30.837Z,5.97
2023-01-10T21:13:59.164Z,6.80
2023-01-10T21:16:26.935Z,8.13
2023-01-10T21:18:54.936Z,9.68
2023-01-10T21:21:22.881Z,7.25
2023-01-10T21:23:53.967Z,7.38
2023-01-10T21:26:22.110Z,7.72
2023-01-10T21:28:49.674Z,2.25
2023-01-10T21:31:23.693Z,6.72
2023-01-10T21:33:51.303Z,4.03
2023-01-10T21:38:49.680Z,5.75
2023-01-10T21:41:38.940Z,3.28
2023-01-10T21:44:08.092Z,5.45
2023-01-10T21:46:36.047Z,4.28
2023-01-10T21:49:04.292Z,7.35
2023-01-10T21:51:31.818Z,6.30
2023-01-10T21:53:59.436Z,5.82
2023-01-10T21:56:26.989Z,6.53
2023-01-10T21:58:54.513Z,3.22
2023-01-10T22:01:21.952Z,4.20
2023-01-10T22:03:49.740Z,3.63
2023-01-10T22:06:17.305Z,4.47
2023-01-10T22:08:44.743Z,0.88
2023-01-10T22:13:40.263Z,3.03
2023-01-10T22:16:08.097Z,3.33
2023-01-10T22:18:35.727Z,4.53
2023-01-10T22:21:03.531Z,2.60
2023-01-10T22:23:31.250Z,2.55
2023-01-10T22:26:04.049Z,3.50
2023-01-10T22:28:31.877Z,5.10
2023-01-10T22:31:00.141Z,4.40
2023-01-10T22:33:32.768Z,1.40
2023-01-10T22:36:08.644Z,6.80
2023-01-10T22:38:36.224Z,2.92
2023-01-10T22:41:08.299Z,2.97
2023-01-10T22:43:36.319Z,3.30
2023-01-10T22:46:05.036Z,5.28
2023-01-10T22:48:32.837Z,6.72
2023-01-10T22:51:01.512Z,4.57
2023-01-10T22:53:29.207Z,4.25
2023-01-10T22:56:00.234Z,4.35
2023-01-10T22:58:28.015Z,2.72
2023-01-10T23:00:55.595Z,4.60
2023-01-10T23:03:23.751Z,4.40
2023-01-10T23:05:56.662Z,4.53
2023-01-10T23:08:25.855Z,3.35
2023-01-10T23:10:54.475Z,4.30
2023-01-10T23:13:23.143Z,4.97
2023-01-10T23:16:05.960Z,2.05
2023-01-10T23:18:34.725Z,3.35
2023-01-10T23:21:02.849Z,2.13
2023-01-10T23:23:30.568Z,4.20
2023-01-10T23:26:02.747Z,4.55
2023-01-10T23:28:32.577Z,3.60
2023-01-10T23:31:00.328Z,6.28
2023-01-10T23:33:28.308Z,5.10
2023-01-10T23:35:55.780Z,8.93
2023-01-10T23:38:23.584Z,4.95
2023-01-10T23:40:51.047Z,3.67
2023-01-10T23:43:18.776Z,6.13
2023-01-10T23:45:46.507Z,5.70
2023-01-10T23:48:14.604Z,9.85
2023-01-10T23:50:42.055Z,8.15
2023-01-10T23:53:09.933Z,5.82
2023-01-10T23:55:37.394Z,4.57
2023-01-10T23:58:05.201Z,4.60
